METAR Data
IDs: Format: Raw Decoded Include TAF

Data at: 1200 UTC 16 Oct 2018

PAKV 161153Z AUTO 06006KT 10SM -RA SCT043 OVC050 03/00 A2933 RMK AO2 RAE07B42 SLP933 P0000 60000 T00280000 10039 20022 TSNO $
PAKV 161053Z AUTO 03011G16KT 6SM -RA FEW029 OVC039 03/M01 A2933 RMK AO2 RAB04E18B46 SLP935 P0000 T00281006 TSNO $
PAKV 160953Z AUTO 04010KT 10SM OVC047 03/M01 A2933 RMK AO2 SLP935 T00331011 TSNO
PAKV 160853Z AUTO 04009G17KT 10SM OVC050 03/M01 A2936 RMK AO2 RAB28E53 SLP943 P0000 60000 T00331011 400390006 58015 TSNO
PAKV 160753Z AUTO 03009KT 10SM BKN060 OVC070 03/M01 A2938 RMK SLP951 T00331011 TSNO VIA AUTODIAL
PAKV 160653Z AUTO 04010KT 10SM OVC095 03/M01 A2939 RMK AO2 SLP955 T00331011 TSNO
PAKV 160553Z AUTO 04008G20KT 10SM OVC090 03/M01 A2940 RMK AO2 SLP959 T00331011 10039 20028 55013 TSNO
PAKV 160453Z AUTO 04013G20KT 10SM OVC090 04/M01 A2940 RMK AO2 SLP958 T00391011 TSNO
PAKV 160353Z AUTO 03011G22KT 10SM OVC100 03/M01 A2943 RMK AO2 SLP969 T00331006 TSNO
PAKV 160253Z AUTO 05017G21KT 10SM CLR 03/M01 A2944 RMK AO2 SLP971 T00281006 58029 TSNO
PAKV 160153Z AUTO 05011G19KT 10SM BKN075 03/M01 A2948 RMK AO2 SLP985 T00281006 TSNO
PAKV 160053Z AUTO 05014G21KT 10SM BKN080 04/M01 A2951 RMK SLP996 T00391006 TSNO VIA AUTODIAL
PAKV 152353Z AUTO 04011G19KT 10SM FEW020 BKN070 BKN090 03/00 A2953 RMK AO2 PK WND 05027/2328 RAB15E36 PRESFR SLP001 P0000 60000 T00280000 10028 20011 58034 TSNO
PAKV 152253Z AUTO 04011KT 10SM FEW020 BKN070 OVC100 02/M01 A2959 RMK AO2 SLP022 T00221011 TSNO
PAKV 152153Z AUTO 05008KT 10SM OVC100 02/M01 A2961 RMK AO2 SLP029 T00221006 TSNO
PAKV 152053Z AUTO 05009KT 10SM OVC090 02/M01 A2963 RMK SLP036 T00171006 56005 TSNO VIA AUTODIAL
PAKV 151953Z AUTO 06011G21KT 10SM FEW021 BKN080 02/M01 A2964 RMK AO2 SLP038 T00221006 TSNO
PAKV 151853Z AUTO 05009KT 10SM CLR 02/00 A2963 RMK AO2 SLP036 T00170000 TSNO
PAKV 151753Z AUTO 06010KT 10SM CLR 01/M01 A2964 RMK SLP041 T00111006 10039 20006 58009 TSNO VIA AUTODIAL
PAKV 151653Z AUTO 05009KT 10SM CLR 01/00 A2967 RMK AO2 SLP049 T00110000 TSNO
PAKV 151553Z AUTO 05009G15KT 10SM CLR 02/01 A2967 RMK SLP048 T00170006 TSNO VIA AUTODIAL
PAKV 151453Z AUTO 06008KT 10SM CLR 03/01 A2967 RMK SLP049 T00280006 58020 TSNO VIA AUTODIAL
PAKV 151353Z AUTO 05009KT 10SM CLR 03/01 A2969 RMK SLP056 T00330011 TSNO VIA AUTODIAL
PAKV 151253Z AUTO 06007G17KT 10SM CLR 03/02 A2971 RMK SLP063 T00330017 TSNO VIA AUTODIAL
PAKV 151153Z AUTO 05010KT 10SM CLR 04/02 A2973 RMK SLP069 T00390017 10039 20011 58017 TSNO VIA AUTODIAL
PAKV 151053Z AUTO 04009KT 10SM CLR 03/02 A2975 RMK SLP076 T00280017 TSNO VIA AUTODIAL
PAKV 151007Z AUTO 05007KT 10SM SCT012 03/02 A2977 RMK T00280022 TSNO VIA AUTODIAL
PAKV 150953Z AUTO 04008G18KT 10SM BKN012 03/02 A2977 RMK SLP083 T00330022 TSNO VIA AUTODIAL
PAKV 150913Z AUTO 06005KT 10SM BKN013 03/02 A2978 RMK T00280022 TSNO VIA AUTODIAL
PAKV 150853Z AUTO 06006KT 10SM SCT013 03/02 A2978 RMK SLP086 T00280022 400610006 53000 TSNO VIA AUTODIAL
PAKV 150850Z AUTO 06005KT 10SM SCT013 03/02 A2978 RMK TSNO VIA AUTODIAL
PAKV 150753Z AUTO 06006KT 10SM OVC012 03/03 A2977 RMK SLP084 T00330028 TSNO VIA AUTODIAL
PAKV 150733Z AUTO 05006KT 10SM BKN012 03/03 A2977 RMK T00330028 TSNO VIA AUTODIAL
PAKV 150714Z AUTO 05006KT 10SM SCT012 03/02 A2977 RMK T00280022 TSNO VIA AUTODIAL
PAKV 150653Z AUTO 05006KT 10SM BKN013 03/03 A2978 RMK SLP086 T00330028 TSNO VIA AUTODIAL
PAKV 150553Z AUTO 00000KT 10SM FEW014 BKN065 01/01 A2979 RMK SLP090 T00110011 10061 20006 50000 TSNO VIA AUTODIAL
PAKV 150534Z AUTO 00000KT 10SM FEW014 BKN065 01/01 A2979 RMK T00060006 TSNO VIA AUTODIAL
PAKV 150502Z AUTO 00000KT 9SM BKN014 02/01 A2979 RMK T00170011 TSNO VIA AUTODIAL
PAKV 150407Z AUTO 00000KT 10SM SCT014 02/02 A2979 RMK AO2 T00220017 TSNO
PAKV 150353Z AUTO 00000KT 10SM BKN013 03/02 A2979 RMK AO2 SLP090 T00330022 TSNO
PAKV 150253Z AUTO 06006KT 10SM BKN010 OVC034 04/03 A2979 RMK AO2 SLP089 T00440033 56011 TSNO
PAKV 150242Z AUTO 05005KT 10SM FEW008 SCT013 BKN033 04/03 A2979 RMK AO2 T00390033 TSNO
PAKV 150225Z AUTO 00000KT 10SM FEW008 BKN012 BKN034 05/04 A2979 RMK AO2 T00500039 TSNO
PAKV 150214Z AUTO 05004KT 10SM BKN010 BKN034 05/03 A2979 RMK AO2 CIG 008V013 T00500033 TSNO
PAKV 150153Z AUTO 07003KT 10SM BKN009 05/03 A2980 RMK AO2 CIG 007V011 SLP092 T00500033 TSNO
PAKV 150053Z AUTO 06007KT 10SM OVC008 06/04 A2980 RMK SLP095 T00560044 TSNO VIA AUTODIAL
PAKV 150038Z AUTO 05006KT 10SM BKN008 OVC025 06/04 A2981 RMK T00560044 TSNO VIA AUTODIAL